createdAt,value
2023-04-21T00:00:10.503Z,13.77
2023-04-21T00:05:10.536Z,13.64
2023-04-21T00:10:10.340Z,13.81
2023-04-21T00:15:10.363Z,13.81
2023-04-21T00:20:10.381Z,13.81
2023-04-21T00:25:10.387Z,13.81
2023-04-21T00:30:10.333Z,13.81
2023-04-21T00:35:09.589Z,13.52
2023-04-21T00:40:10.380Z,13.25
2023-04-21T00:45:10.527Z,13.25
2023-04-21T00:50:10.379Z,13.45
2023-04-21T00:55:10.396Z,13.66
2023-04-21T01:00:10.579Z,13.14
2023-04-21T01:05:10.329Z,13.14
2023-04-21T01:10:10.367Z,12.98
2023-04-21T01:15:10.480Z,12.98
2023-04-21T01:20:10.350Z,12.98
2023-04-21T01:25:10.381Z,12.35
2023-04-21T01:30:10.388Z,12.5
2023-04-21T01:35:10.499Z,12.94
2023-04-21T01:40:10.405Z,12.86
2023-04-21T01:45:10.418Z,12.86
2023-04-21T01:50:10.364Z,12.86
2023-04-21T01:55:12.632Z,12.86
2023-04-21T02:00:10.400Z,12.35
2023-04-21T02:05:10.398Z,12.35
2023-04-21T02:10:10.310Z,12.35
2023-04-21T02:15:10.452Z,12.35
2023-04-21T02:30:10.537Z,11.82
2023-04-21T02:35:10.694Z,11.82
2023-04-21T02:40:10.634Z,11.82
2023-04-21T02:45:10.606Z,11.82
2023-04-21T02:50:10.549Z,11.82
2023-04-21T02:55:10.634Z,11.82
2023-04-21T03:00:10.565Z,11.33
2023-04-21T03:05:11.184Z,11.33
2023-04-21T03:10:10.526Z,11.84
2023-04-21T03:15:10.585Z,11.84
2023-04-21T03:20:10.616Z,11.84
2023-04-21T03:25:10.577Z,11.78
2023-04-21T03:30:10.550Z,11.78
2023-04-21T03:35:10.669Z,11.78
2023-04-21T03:40:10.561Z,11.78
2023-04-21T03:45:10.608Z,11.54
2023-04-21T03:50:10.640Z,11.54
2023-04-21T03:55:10.596Z,11.54
2023-04-21T04:00:10.606Z,11.54
2023-04-21T04:05:10.658Z,11.54
2023-04-21T04:10:10.554Z,12.13
2023-04-21T04:15:10.612Z,11.73
2023-04-21T04:20:10.646Z,11.73
2023-04-21T04:25:10.608Z,11.58
2023-04-21T04:30:10.553Z,11.58
2023-04-21T04:35:11.552Z,11.58
2023-04-21T04:40:10.635Z,12.09
2023-04-21T04:45:10.570Z,12.09
2023-04-21T04:50:10.750Z,12.09
2023-04-21T04:55:10.572Z,12.43
2023-04-21T05:00:10.649Z,12.43
2023-04-21T05:05:10.672Z,12.43
2023-04-21T05:10:10.621Z,12.09
2023-04-21T05:15:10.570Z,12.09
2023-04-21T05:20:10.734Z,12.23
2023-04-21T05:30:10.387Z,14.38
2023-04-21T05:35:11.253Z,15.45
2023-04-21T05:40:10.960Z,16.51
2023-04-21T05:45:10.332Z,17.61
2023-04-21T05:50:10.568Z,18.11
2023-04-21T05:55:10.347Z,18.11
2023-04-21T06:00:10.417Z,18.11
2023-04-21T06:05:10.752Z,17.9
2023-04-21T06:10:10.411Z,17.55
2023-04-21T06:15:10.351Z,16.99
2023-04-21T06:20:10.460Z,16.99
2023-04-21T06:25:10.377Z,16.72
2023-04-21T06:30:10.670Z,16.72
2023-04-21T06:35:10.523Z,16.76
2023-04-21T06:40:10.396Z,16.76
2023-04-21T06:45:10.364Z,16.76
2023-04-21T06:50:11.166Z,16.76
2023-04-21T06:55:10.353Z,16.86
2023-04-21T07:00:10.548Z,17.1
2023-04-21T07:05:10.427Z,17.38
2023-04-21T07:10:10.421Z,17.38
2023-04-21T07:15:10.347Z,17.38
2023-04-21T07:20:10.518Z,17.38
2023-04-21T07:25:10.373Z,17.89
2023-04-21T07:30:10.483Z,17.89
2023-04-21T07:35:11.222Z,18.44
2023-04-21T07:40:10.371Z,18.44
2023-04-21T07:45:10.445Z,18.44
2023-04-21T07:50:10.436Z,17.93
2023-04-21T07:55:10.408Z,17.93
2023-04-21T08:00:10.433Z,18.13
2023-04-21T08:05:10.597Z,18.13
2023-04-21T08:10:10.370Z,18.13
2023-04-21T08:15:10.737Z,17.41
2023-04-21T08:20:11.163Z,17.92
2023-04-21T08:25:10.406Z,17.92
2023-04-21T08:30:10.360Z,17.92
2023-04-21T08:35:10.586Z,17.92
2023-04-21T08:40:10.359Z,17.92
2023-04-21T08:45:10.452Z,18.47
2023-04-21T08:50:10.446Z,18.47
2023-04-21T08:55:10.401Z,18.24
2023-04-21T09:00:10.352Z,18.24
2023-04-21T09:05:10.920Z,17.95
2023-04-21T09:10:10.362Z,17.95
2023-04-21T09:15:10.388Z,17.95
2023-04-21T09:20:10.400Z,18.3
2023-04-21T09:25:11.165Z,18.3
2023-04-21T09:30:10.351Z,18.81
2023-04-21T09:35:11.599Z,18.81
2023-04-21T09:40:10.363Z,18.81
2023-04-21T09:50:12.546Z,18.95
2023-04-21T09:55:10.432Z,18.3
2023-04-21T10:00:10.385Z,18.81
2023-04-21T10:05:10.797Z,18.81
2023-04-21T10:10:10.374Z,18.81
2023-04-21T10:15:10.400Z,19.34
2023-04-21T10:20:11.186Z,19.34
2023-04-21T10:25:10.688Z,19.34
2023-04-21T10:30:10.409Z,19.34
2023-04-21T10:35:10.492Z,19.89
2023-04-21T10:40:10.362Z,19.54
2023-04-21T10:45:10.419Z,19.54
2023-04-21T10:50:10.419Z,19.75
2023-04-21T10:55:10.433Z,19.99
2023-04-21T11:00:10.406Z,20.12
2023-04-21T11:05:10.480Z,20.68
2023-04-21T11:10:10.385Z,21.21
2023-04-21T11:15:10.405Z,21.21
2023-04-21T11:20:10.424Z,20.7
2023-04-21T11:25:10.412Z,20.7
2023-04-21T11:30:10.365Z,20.7
2023-04-21T11:35:10.431Z,20.7
2023-04-21T11:40:10.359Z,21.42
2023-04-21T11:45:10.467Z,21.42
2023-04-21T11:50:10.485Z,21.42
2023-04-21T11:55:10.423Z,21.42
2023-04-21T12:00:10.394Z,21.74
2023-04-21T12:05:10.549Z,21.24
2023-04-21T12:10:10.422Z,20.73
2023-04-21T12:15:10.416Z,20.2
2023-04-21T12:20:10.614Z,20.2
2023-04-21T12:25:10.406Z,20.2
2023-04-21T12:30:10.493Z,20.2
2023-04-21T12:35:10.498Z,20.55
2023-04-21T12:40:10.355Z,20.18
2023-04-21T12:45:10.466Z,20.68
2023-04-21T12:50:10.580Z,21.21
2023-04-21T12:55:10.410Z,21.74
2023-04-21T13:00:10.375Z,22.25
2023-04-21T13:05:10.450Z,22.25
2023-04-21T13:10:10.395Z,21.24
2023-04-21T13:15:10.476Z,21.77
2023-04-21T13:20:10.523Z,22.34
2023-04-21T13:25:10.463Z,22.28
2023-04-21T13:30:10.362Z,22.82
2023-04-21T13:35:10.474Z,23.32
2023-04-21T13:40:10.382Z,23.32
2023-04-21T13:55:10.613Z,22.39
2023-04-21T14:00:10.624Z,22.39
2023-04-21T14:05:10.815Z,22.39
2023-04-21T14:10:10.718Z,22.49
2023-04-21T14:15:10.640Z,22.49
2023-04-21T14:20:10.686Z,22.49
2023-04-21T14:25:10.649Z,22.59
2023-04-21T14:30:10.654Z,22.69
2023-04-21T14:35:05.799Z,22.69
2023-04-21T14:40:12.980Z,22.69
2023-04-21T14:45:10.677Z,22.69
2023-04-21T14:50:10.655Z,22.69
2023-04-21T14:55:10.582Z,22.08
2023-04-21T15:00:11.199Z,22.08
2023-04-21T15:05:10.767Z,22.08
2023-04-21T15:10:10.780Z,22.08
2023-04-21T15:15:10.683Z,22.08
2023-04-21T15:20:10.659Z,21.56
2023-04-21T15:25:10.650Z,21.56
2023-04-21T15:30:12.059Z,21.32
2023-04-21T15:35:10.602Z,21.03
2023-04-21T15:40:10.733Z,21.03
2023-04-21T15:45:10.695Z,21.03
2023-04-21T15:50:10.706Z,21.03
2023-04-21T15:55:10.623Z,21.03
2023-04-21T16:00:10.960Z,21.03
2023-04-21T16:05:10.736Z,21.03
2023-04-21T16:10:10.699Z,21.03
2023-04-21T16:20:10.725Z,21.03
2023-04-21T16:25:10.696Z,20.4
2023-04-21T16:30:10.725Z,20.4
2023-04-21T16:35:10.687Z,20
2023-04-21T16:40:10.692Z,20
2023-04-21T16:45:10.817Z,20
2023-04-21T16:50:10.748Z,19.46
2023-04-21T16:55:10.633Z,19.46
2023-04-21T17:00:10.694Z,19.46
2023-04-21T17:05:10.634Z,19.46
2023-04-21T17:10:10.731Z,19.46
2023-04-21T17:15:10.707Z,19.46
2023-04-21T17:20:10.744Z,19.46
2023-04-21T17:25:10.635Z,18.93
2023-04-21T17:30:12.614Z,18.93
2023-04-21T17:35:10.757Z,18.43
2023-04-21T17:40:10.650Z,18.43
2023-04-21T17:45:10.683Z,18.43
2023-04-21T17:50:11.325Z,18.43
2023-04-21T17:55:10.683Z,18.43
2023-04-21T18:00:10.706Z,18.43
2023-04-21T18:05:06.756Z,18.43
2023-04-21T18:10:10.678Z,18.43
2023-04-21T18:15:10.703Z,18.43
2023-04-21T18:20:11.460Z,17.9
2023-04-21T18:25:10.635Z,17.9
2023-04-21T18:30:10.693Z,17.9
2023-04-21T18:35:10.654Z,17.37
2023-04-21T18:40:10.696Z,17.37
2023-04-21T18:45:10.923Z,17.37
2023-04-21T18:50:10.658Z,17.37
2023-04-21T18:55:10.622Z,17.13
2023-04-21T19:00:10.779Z,17.13
2023-04-21T19:05:10.621Z,17.13
2023-04-21T19:10:10.649Z,17.13
2023-04-21T19:15:11.520Z,16.76
2023-04-21T19:20:10.670Z,16.79
2023-04-21T19:25:10.640Z,16.79
2023-04-21T19:30:10.771Z,16.79
2023-04-21T19:35:05.636Z,16.79
2023-04-21T19:40:10.698Z,17.3
2023-04-21T19:45:10.716Z,17.34
2023-04-21T19:50:10.700Z,17.34
2023-04-21T19:55:10.631Z,16.82
2023-04-21T20:00:10.710Z,16.82
2023-04-21T20:05:10.659Z,16.82
2023-04-21T20:10:10.710Z,16.4
2023-04-21T20:15:10.828Z,16.4
2023-04-21T20:20:10.819Z,16.4
2023-04-21T20:25:10.635Z,16.4
2023-04-21T20:30:10.700Z,16.4
2023-04-21T20:35:05.693Z,16.4
2023-04-21T20:40:11.489Z,16.4
2023-04-21T20:45:11.610Z,16.4
2023-04-21T20:50:10.747Z,15.96
2023-04-21T20:55:10.737Z,15.96
2023-04-21T21:00:10.737Z,15.96
2023-04-21T21:05:10.787Z,15.59
2023-04-21T21:10:10.633Z,15.59
2023-04-21T21:15:10.734Z,15.59
2023-04-21T21:20:10.688Z,15.6
2023-04-21T21:25:10.743Z,15.6
2023-04-21T21:30:10.744Z,15.6
2023-04-21T21:35:10.831Z,15.6
2023-04-21T21:40:10.723Z,15.6
2023-04-21T21:45:10.722Z,15.35
2023-04-21T21:50:10.629Z,14.83
2023-04-21T21:55:10.670Z,14.83
2023-04-21T22:00:10.732Z,14.74
2023-04-21T22:05:11.689Z,14.74
2023-04-21T22:10:10.645Z,14.74
2023-04-21T22:15:10.756Z,14.74
2023-04-21T22:20:10.664Z,14.74
2023-04-21T22:25:10.728Z,14.74
2023-04-21T22:30:10.720Z,14.74
2023-04-21T22:35:10.773Z,14.74
2023-04-21T22:40:10.680Z,14.74
2023-04-21T22:45:10.705Z,14.74
2023-04-21T22:50:10.668Z,14.74
2023-04-21T22:55:10.698Z,14.74
2023-04-21T23:00:10.838Z,14.76
2023-04-21T23:05:10.716Z,14.22
2023-04-21T23:10:10.650Z,13.71
2023-04-21T23:20:10.622Z,14.82
2023-04-21T23:25:10.714Z,14.82
2023-04-21T23:30:10.822Z,14.82
2023-04-21T23:35:10.689Z,14.82
2023-04-21T23:40:10.628Z,14.31
2023-04-21T23:45:10.692Z,14.31
2023-04-21T23:50:10.626Z,14.42
2023-04-21T23:55:11.700Z,14.42
